Time;durP1;ratioP1;P1;durP2;ratioP2;P2;SDS_P1;SDS_P2;PMS_P1;PMS_P2;Temp;Humidity;BMP_temperature;BMP_pressure;BME280_temperature;BME280_humidity;BME280_pressure;Samples;Min_cycle;Max_cycle;Signal;HPM_P1;HPM_P2
2021/05/19 00:01:47;;;;;;;0.63;0.63;;;10.00;99.90;;;;;;5034473;28;20174;-70
2021/05/19 00:04:13;;;;;;;0.80;0.80;;;10.00;99.90;;;;;;5034011;28;20170;-72
2021/05/19 00:06:39;;;;;;;1.00;1.00;;;10.00;99.90;;;;;;5054461;28;20166;-70
2021/05/19 00:09:07;;;;;;;0.80;0.80;;;10.00;99.90;;;;;;5054440;28;20334;-70
2021/05/19 00:11:35;;;;;;;0.90;0.90;;;10.00;99.90;;;;;;5047605;28;20408;-71
2021/05/19 00:14:01;;;;;;;0.75;0.75;;;9.90;99.90;;;;;;5033909;28;20166;-71
2021/05/19 00:16:27;;;;;;;1.35;0.88;;;10.00;99.90;;;;;;5053590;28;20263;-70
2021/05/19 00:18:53;;;;;;;1.17;1.00;;;10.00;99.90;;;;;;5054249;28;20176;-71
2021/05/19 00:21:19;;;;;;;1.13;1.13;;;10.00;99.90;;;;;;5036145;28;20181;-70
2021/05/19 00:23:44;;;;;;;1.05;1.05;;;10.00;99.90;;;;;;5033754;28;20170;-70
2021/05/19 00:26:10;;;;;;;0.63;0.63;;;10.00;99.90;;;;;;5049772;28;20292;-70
2021/05/19 00:28:36;;;;;;;0.77;0.77;;;10.00;99.90;;;;;;5053870;28;20208;-70
2021/05/19 00:31:05;;;;;;;0.87;0.87;;;10.00;99.90;;;;;;5039229;28;20178;-70
2021/05/19 00:33:31;;;;;;;1.25;1.15;;;10.00;99.90;;;;;;5033695;28;20647;-70
2021/05/19 00:35:57;;;;;;;2.00;0.63;;;10.00;99.90;;;;;;5046755;28;20198;-71
2021/05/19 00:38:22;;;;;;;6.73;1.07;;;10.00;99.90;;;;;;5053969;28;20193;-70
2021/05/19 00:40:48;;;;;;;2.17;1.93;;;10.00;99.90;;;;;;5049855;28;20225;-70
2021/05/19 00:43:15;;;;;;;1.23;0.88;;;10.00;99.90;;;;;;5053308;28;20197;-70
2021/05/19 00:45:41;;;;;;;1.90;1.80;;;10.10;99.90;;;;;;5043507;28;20233;-70
2021/05/19 00:48:09;;;;;;;0.98;0.98;;;10.10;99.90;;;;;;5033919;28;20643;-70
2021/05/19 00:50:35;;;;;;;1.45;1.00;;;10.10;99.90;;;;;;5042160;28;20200;-70
2021/05/19 00:53:01;;;;;;;0.93;0.93;;;10.10;99.90;;;;;;5053525;28;20169;-70
2021/05/19 00:55:27;;;;;;;4.13;1.70;;;10.00;99.90;;;;;;5046054;28;20212;-69
2021/05/19 00:57:56;;;;;;;0.87;0.87;;;10.10;99.90;;;;;;5039116;28;20591;-70
2021/05/19 01:00:24;;;;;;;0.93;0.93;;;10.10;99.90;;;;;;5022137;28;20174;-69
2021/05/19 01:02:51;;;;;;;2.35;0.90;;;10.10;99.90;;;;;;5037958;28;20566;-70
2021/05/19 01:05:42;;;;;;;1.95;1.10;;;10.20;99.90;;;;;;5045833;28;20197;-70
2021/05/19 01:10:53;;;;;;;1.15;1.00;;;10.20;99.90;;;;;;5053539;28;20247;-69
2021/05/19 01:13:19;;;;;;;1.05;1.05;;;10.20;99.90;;;;;;5044439;28;20216;-69
2021/05/19 01:15:46;;;;;;;1.98;1.35;;;10.20;99.90;;;;;;5033386;28;20183;-69
2021/05/19 01:18:12;;;;;;;3.13;1.33;;;10.20;99.90;;;;;;5039823;28;20170;-70
2021/05/19 01:20:37;;;;;;;0.90;0.90;;;10.20;99.90;;;;;;5041589;28;20335;-70
2021/05/19 01:23:05;;;;;;;1.50;1.40;;;10.20;99.90;;;;;;5037952;28;20173;-70
2021/05/19 01:25:32;;;;;;;1.35;1.33;;;10.20;99.90;;;;;;5052308;28;20660;-70
2021/05/19 01:28:00;;;;;;;1.73;1.30;;;10.20;99.90;;;;;;5050691;28;20267;-69
2021/05/19 01:30:28;;;;;;;1.48;1.27;;;10.20;99.90;;;;;;5053261;28;20197;-70
2021/05/19 01:32:54;;;;;;;1.55;1.45;;;10.20;99.90;;;;;;5046431;28;20174;-70
2021/05/19 01:35:20;;;;;;;1.83;1.43;;;10.20;99.90;;;;;;5032744;28;20190;-70
2021/05/19 01:37:47;;;;;;;4.18;1.15;;;10.30;99.90;;;;;;5035739;28;20447;-70
2021/05/19 01:40:15;;;;;;;1.05;0.90;;;10.20;99.90;;;;;;5051431;28;20260;-71
2021/05/19 01:42:41;;;;;;;1.33;0.93;;;10.30;99.90;;;;;;5051963;28;20183;-71
2021/05/19 01:45:08;;;;;;;0.82;0.82;;;10.30;99.90;;;;;;5052247;28;20204;-70
2021/05/19 01:47:45;;;;;;;1.13;1.02;;;10.30;99.90;;;;;;5052218;28;20177;-71
2021/05/19 01:50:14;;;;;;;1.55;1.20;;;10.30;99.90;;;;;;5037278;28;20222;-70
2021/05/19 01:52:41;;;;;;;1.20;1.13;;;10.30;99.90;;;;;;5051986;28;20196;-71
2021/05/19 01:55:09;;;;;;;1.20;1.13;;;10.30;99.90;;;;;;5032475;28;20189;-70
2021/05/19 01:57:35;;;;;;;0.52;0.52;;;10.20;99.90;;;;;;5034103;28;20185;-70
2021/05/19 02:00:03;;;;;;;0.90;0.90;;;10.20;99.90;;;;;;5032919;28;20536;-70
2021/05/19 02:02:28;;;;;;;2.63;2.42;;;10.20;99.90;;;;;;5033818;28;20205;-71
2021/05/19 02:04:55;;;;;;;1.77;1.57;;;10.20;99.90;;;;;;5047637;28;20224;-70
2021/05/19 02:07:21;;;;;;;0.90;0.90;;;10.20;99.90;;;;;;5032635;28;20178;-73
2021/05/19 02:09:47;;;;;;;1.20;1.20;;;10.30;99.90;;;;;;5052844;28;20201;-70
2021/05/19 02:12:14;;;;;;;0.53;0.53;;;10.20;99.90;;;;;;5052983;28;20501;-69
2021/05/19 02:14:40;;;;;;;1.15;1.08;;;10.20;99.90;;;;;;5033252;28;20186;-70
2021/05/19 02:17:06;;;;;;;1.05;1.05;;;10.20;99.90;;;;;;5032952;28;20170;-70
2021/05/19 02:19:33;;;;;;;1.70;1.03;;;10.20;99.90;;;;;;5046685;28;20177;-70
2021/05/19 02:21:58;;;;;;;3.75;1.05;;;10.20;99.90;;;;;;5032880;28;20416;-70
2021/05/19 02:24:24;;;;;;;1.27;0.70;;;10.20;99.90;;;;;;5032676;28;20198;-70
2021/05/19 02:26:50;;;;;;;5.00;0.90;;;10.10;99.90;;;;;;5032579;28;20185;-69
2021/05/19 02:29:17;;;;;;;1.45;1.13;;;10.10;99.90;;;;;;5047697;28;20232;-70
2021/05/19 02:31:43;;;;;;;1.38;1.00;;;10.10;99.90;;;;;;5051342;28;20227;-70
2021/05/19 02:34:09;;;;;;;0.77;0.77;;;10.10;99.90;;;;;;5040280;28;20178;-70
2021/05/19 02:36:37;;;;;;;1.05;0.95;;;10.10;99.90;;;;;;5052581;28;20194;-69
2021/05/19 02:39:05;;;;;;;1.90;1.70;;;10.10;99.90;;;;;;5041974;28;20182;-69
2021/05/19 02:41:31;;;;;;;6.47;1.10;;;10.10;99.90;;;;;;5036267;28;20629;-70
2021/05/19 02:43:57;;;;;;;1.07;1.07;;;10.10;99.90;;;;;;5036487;28;20189;-70
2021/05/19 02:46:22;;;;;;;0.80;0.80;;;10.10;99.90;;;;;;5036028;28;20189;-70
2021/05/19 02:48:48;;;;;;;1.17;1.07;;;10.00;99.90;;;;;;5045555;28;20192;-70
2021/05/19 02:51:17;;;;;;;1.40;1.20;;;10.00;99.90;;;;;;5037607;28;20675;-69
2021/05/19 02:53:42;;;;;;;1.05;1.05;;;10.00;99.90;;;;;;5046493;28;20166;-70
2021/05/19 02:56:08;;;;;;;0.80;0.80;;;10.00;99.90;;;;;;5035661;28;20190;-70
2021/05/19 02:58:34;;;;;;;2.00;1.27;;;10.00;99.90;;;;;;5039958;28;20500;-70
2021/05/19 03:01:00;;;;;;;1.53;1.20;;;10.00;99.90;;;;;;5035593;28;20536;-70
2021/05/19 03:03:25;;;;;;;2.30;2.03;;;10.00;99.90;;;;;;5041013;28;20169;-70
2021/05/19 03:05:51;;;;;;;1.80;1.47;;;10.00;99.90;;;;;;5055715;28;20431;-69
2021/05/19 03:08:17;;;;;;;1.03;1.03;;;10.00;99.90;;;;;;5050760;28;20249;-69
2021/05/19 03:10:42;;;;;;;1.87;1.77;;;10.00;99.90;;;;;;5035659;28;20256;-71
2021/05/19 03:13:08;;;;;;;1.20;1.13;;;10.00;99.90;;;;;;5042915;28;20183;-70
2021/05/19 03:15:34;;;;;;;2.30;1.80;;;10.00;99.90;;;;;;5017667;28;20248;-69
2021/05/19 03:17:59;;;;;;;7.33;1.43;;;10.00;99.90;;;;;;5036838;28;20176;-70
2021/05/19 03:20:27;;;;;;;1.70;1.00;;;10.00;99.90;;;;;;5055592;28;20647;-69
2021/05/19 03:22:52;;;;;;;1.30;1.30;;;10.00;99.90;;;;;;5055073;28;20169;-70
2021/05/19 03:25:18;;;;;;;2.20;2.00;;;10.00;99.90;;;;;;5034908;28;20203;-70
2021/05/19 03:27:44;;;;;;;1.80;1.70;;;10.00;99.90;;;;;;5026794;28;20544;-70
2021/05/19 03:30:13;;;;;;;1.40;1.30;;;10.00;99.90;;;;;;5036476;28;20506;-70
2021/05/19 03:32:40;;;;;;;1.23;1.20;;;9.90;99.90;;;;;;5035317;28;20164;-70
2021/05/19 03:35:07;;;;;;;1.35;1.25;;;9.90;99.90;;;;;;5051445;28;20197;-69
2021/05/19 03:37:34;;;;;;;1.23;1.23;;;9.90;99.90;;;;;;5055124;28;20169;-70
2021/05/19 03:39:59;;;;;;;1.25;1.25;;;10.00;99.90;;;;;;5038905;28;20590;-70
2021/05/19 03:42:25;;;;;;;2.00;1.77;;;9.90;99.90;;;;;;5035926;28;20185;-70
2021/05/19 03:44:52;;;;;;;1.87;1.20;;;9.90;99.90;;;;;;5045427;28;20462;-69
2021/05/19 03:47:17;;;;;;;1.25;1.15;;;10.00;99.90;;;;;;5034883;28;20930;-70
2021/05/19 03:49:43;;;;;;;2.53;2.33;;;10.00;99.90;;;;;;5044317;28;20205;-70
2021/05/19 03:52:10;;;;;;;1.65;1.55;;;9.90;99.90;;;;;;5034790;28;20170;-69
2021/05/19 03:54:36;;;;;;;2.42;2.22;;;9.90;99.90;;;;;;5017412;28;20198;-70
2021/05/19 03:57:04;;;;;;;1.17;1.17;;;10.00;99.90;;;;;;5036790;28;20181;-69
2021/05/19 03:59:31;;;;;;;1.77;1.60;;;9.90;99.90;;;;;;5036736;28;20181;-70
2021/05/19 04:01:57;;;;;;;1.50;1.40;;;9.90;99.90;;;;;;5053324;28;20252;-70
2021/05/19 04:04:23;;;;;;;2.07;1.87;;;10.00;99.90;;;;;;5034056;28;20710;-69
2021/05/19 04:06:48;;;;;;;1.33;1.30;;;10.00;99.90;;;;;;5034715;28;20444;-70
2021/05/19 04:09:14;;;;;;;1.73;1.63;;;10.00;99.90;;;;;;5053477;28;20232;-70
2021/05/19 04:11:41;;;;;;;1.80;1.70;;;10.00;99.90;;;;;;5054426;28;20168;-70
2021/05/19 04:14:07;;;;;;;1.25;1.20;;;10.00;99.90;;;;;;5017951;28;20517;-70
2021/05/19 04:16:32;;;;;;;1.55;1.45;;;10.00;99.90;;;;;;5034095;28;20170;-69
2021/05/19 04:18:58;;;;;;;2.00;1.47;;;10.00;99.90;;;;;;5050100;28;20180;-70
2021/05/19 04:21:24;;;;;;;1.97;1.80;;;10.00;99.90;;;;;;5054252;28;20165;-70
2021/05/19 04:23:50;;;;;;;1.30;1.30;;;10.00;99.90;;;;;;5038871;28;20181;-70
2021/05/19 04:26:15;;;;;;;5.03;2.27;;;10.00;99.90;;;;;;5033919;28;20198;-70
2021/05/19 04:28:41;;;;;;;1.70;1.60;;;10.00;99.90;;;;;;5046622;28;20308;-70
2021/05/19 04:31:07;;;;;;;1.47;1.37;;;10.10;99.90;;;;;;5034368;28;20567;-69
2021/05/19 04:33:33;;;;;;;2.13;1.93;;;10.10;99.90;;;;;;5041450;28;20429;-70
2021/05/19 04:35:59;;;;;;;2.90;1.50;;;10.20;99.90;;;;;;5034115;28;20193;-70
2021/05/19 04:38:25;;;;;;;1.90;1.80;;;10.10;99.90;;;;;;5043906;28;20177;-70
2021/05/19 04:40:51;;;;;;;2.17;1.80;;;10.10;99.90;;;;;;5052583;28;20654;-69
2021/05/19 04:43:18;;;;;;;1.47;1.37;;;10.10;99.90;;;;;;5044032;28;20174;-70
2021/05/19 04:45:44;;;;;;;2.15;1.77;;;10.20;99.90;;;;;;5044841;28;20444;-70
2021/05/19 04:48:10;;;;;;;1.85;1.75;;;10.20;99.90;;;;;;5033958;28;20177;-69
2021/05/19 04:50:37;;;;;;;1.60;1.50;;;10.20;99.90;;;;;;5016712;28;20205;-70
2021/05/19 04:53:03;;;;;;;4.72;2.40;;;10.20;99.90;;;;;;5053032;28;20929;-70
2021/05/19 04:55:30;;;;;;;1.75;1.65;;;10.20;99.90;;;;;;5053413;28;20194;-69
2021/05/19 04:57:55;;;;;;;1.40;1.40;;;10.20;99.90;;;;;;5033836;28;20220;-70
2021/05/19 05:00:21;;;;;;;3.40;1.93;;;10.20;99.90;;;;;;5032804;28;20174;-70
2021/05/19 05:02:47;;;;;;;1.60;1.50;;;10.30;99.90;;;;;;5034200;28;20683;-70
2021/05/19 05:05:13;;;;;;;1.70;1.60;;;10.30;99.90;;;;;;5053044;28;20272;-70
2021/05/19 05:07:39;;;;;;;2.03;1.83;;;10.30;99.90;;;;;;5020642;28;20190;-70
2021/05/19 05:10:06;;;;;;;1.55;1.45;;;10.40;99.90;;;;;;5051956;28;21037;-70
2021/05/19 05:12:33;;;;;;;3.65;3.35;;;10.40;99.90;;;;;;5035607;28;20273;-71
2021/05/19 05:14:59;;;;;;;1.92;1.70;;;10.50;99.90;;;;;;5015308;28;20209;-70
2021/05/19 05:17:24;;;;;;;2.00;1.90;;;10.50;99.90;;;;;;5047460;28;20666;-70
2021/05/19 05:19:50;;;;;;;2.03;1.83;;;10.60;99.90;;;;;;5053397;28;20173;-68
2021/05/19 05:22:16;;;;;;;1.97;1.87;;;10.60;99.90;;;;;;5039123;28;20724;-68
2021/05/19 05:24:42;;;;;;;1.40;1.30;;;10.70;99.90;;;;;;5032912;28;20194;-71
2021/05/19 05:27:07;;;;;;;2.17;1.97;;;10.70;99.90;;;;;;5044923;28;20547;-70
2021/05/19 05:29:45;;;;;;;;;;;;;;;;;;;;;
2021/05/19 05:32:11;;;;;;;2.03;1.83;;;10.90;99.90;;;;;;5051845;28;20169;-69
2021/05/19 05:34:37;;;;;;;2.30;1.83;;;11.00;99.90;;;;;;5034347;28;20280;-69
2021/05/19 05:37:04;;;;;;;1.87;1.80;;;11.10;99.90;;;;;;5042294;28;20170;-69
2021/05/19 05:39:30;;;;;;;1.58;1.40;;;11.10;99.90;;;;;;5033311;28;20575;-69
2021/05/19 05:41:56;;;;;;;2.03;1.83;;;11.30;99.90;;;;;;5042142;28;20189;-69
2021/05/19 05:44:22;;;;;;;1.80;1.67;;;11.30;99.90;;;;;;5051050;28;20201;-69
2021/05/19 05:46:48;;;;;;;3.63;2.63;;;11.50;99.90;;;;;;5033707;28;20222;-70
2021/05/19 05:49:14;;;;;;;2.97;2.55;;;11.60;99.90;;;;;;5052971;28;20539;-70
2021/05/19 05:51:39;;;;;;;2.60;2.20;;;11.70;99.90;;;;;;5051259;28;20554;-70
2021/05/19 05:54:05;;;;;;;3.23;2.70;;;11.90;99.90;;;;;;5052460;28;20203;-70
2021/05/19 05:56:31;;;;;;;3.37;2.30;;;12.00;99.90;;;;;;5050516;28;20178;-70
2021/05/19 05:58:57;;;;;;;4.30;1.93;;;12.10;99.90;;;;;;5016480;28;20432;-70
2021/05/19 06:01:22;;;;;;;5.30;1.77;;;12.10;99.90;;;;;;5042745;28;20701;-69
2021/05/19 06:03:48;;;;;;;6.17;2.03;;;12.10;99.90;;;;;;5049049;28;20194;-70
2021/05/19 06:06:14;;;;;;;4.97;1.50;;;12.20;99.90;;;;;;5052652;28;20187;-69
2021/05/19 06:08:39;;;;;;;5.80;2.17;;;12.30;99.90;;;;;;5039348;28;20225;-71
2021/05/19 06:11:07;;;;;;;5.40;1.73;;;12.40;99.90;;;;;;5041367;28;20206;-70
2021/05/19 06:13:33;;;;;;;6.00;1.83;;;12.50;99.90;;;;;;5040436;28;20179;-70
2021/05/19 06:15:59;;;;;;;5.57;1.80;;;12.60;99.90;;;;;;5056378;28;20509;-69
2021/05/19 06:18:25;;;;;;;8.40;2.20;;;12.80;99.90;;;;;;5055605;28;20467;-70
2021/05/19 06:20:50;;;;;;;6.37;2.30;;;12.90;99.90;;;;;;5056545;28;20638;-71
2021/05/19 06:23:16;;;;;;;5.50;2.00;;;13.10;99.90;;;;;;5034741;28;20470;-68
2021/05/19 06:25:42;;;;;;;6.67;2.10;;;13.30;99.90;;;;;;5035839;28;20467;-68
2021/05/19 06:28:08;;;;;;;6.17;2.10;;;13.50;99.90;;;;;;5048035;28;20177;-69
2021/05/19 06:30:34;;;;;;;6.13;1.97;;;13.70;99.90;;;;;;5037242;28;20459;-70
2021/05/19 06:33:00;;;;;;;6.37;1.97;;;13.90;99.90;;;;;;5047439;28;20430;-70
2021/05/19 06:35:26;;;;;;;6.40;2.20;;;14.00;99.90;;;;;;5035974;28;20264;-69
2021/05/19 06:37:51;;;;;;;8.33;3.10;;;14.00;99.90;;;;;;5033118;28;20206;-70
2021/05/19 06:40:17;;;;;;;8.53;2.43;;;14.10;99.90;;;;;;5036105;28;20515;-70
2021/05/19 06:42:43;;;;;;;6.10;2.07;;;14.00;99.90;;;;;;5036151;28;20208;-71
2021/05/19 06:45:09;;;;;;;6.43;1.93;;;14.00;99.90;;;;;;5042900;28;20214;-71
2021/05/19 06:47:34;;;;;;;6.53;1.80;;;14.00;99.90;;;;;;5035481;28;20267;-70
2021/05/19 06:50:00;;;;;;;9.33;2.60;;;14.00;99.90;;;;;;5038325;28;20535;-67
2021/05/19 06:52:26;;;;;;;8.40;3.60;;;14.00;99.90;;;;;;5035880;28;20171;-68
2021/05/19 06:54:53;;;;;;;6.80;2.20;;;14.00;99.90;;;;;;5035266;28;20200;-67
2021/05/19 06:57:18;;;;;;;8.63;1.90;;;13.90;99.90;;;;;;5031216;28;20221;-69
2021/05/19 06:59:44;;;;;;;7.70;2.13;;;14.00;99.90;;;;;;5038845;28;20424;-68
2021/05/19 07:02:09;;;;;;;6.73;1.53;;;14.20;99.90;;;;;;5048159;28;20723;-68
2021/05/19 07:04:35;;;;;;;7.43;2.37;;;14.50;99.90;;;;;;5034777;28;20277;-69
2021/05/19 07:07:01;;;;;;;7.27;2.10;;;14.60;99.90;;;;;;5035604;28;20201;-69
2021/05/19 07:09:27;;;;;;;9.20;2.23;;;14.70;99.90;;;;;;5035353;28;20194;-69
2021/05/19 07:11:53;;;;;;;7.77;2.00;;;14.90;99.90;;;;;;5032430;28;20496;-67
2021/05/19 07:14:19;;;;;;;5.40;1.40;;;15.10;99.90;;;;;;5034987;28;20198;-68
2021/05/19 07:16:53;;;;;;;7.40;2.10;;;15.20;99.90;;;;;;5033953;28;20426;-70
2021/05/19 07:19:20;;;;;;;8.53;2.00;;;15.30;99.90;;;;;;5034263;28;20425;-69
2021/05/19 07:21:46;;;;;;;9.00;2.63;;;15.30;99.90;;;;;;5034458;28;20512;-69
2021/05/19 07:24:12;;;;;;;8.00;2.23;;;15.40;99.90;;;;;;5033838;28;20506;-68
2021/05/19 07:26:43;;;;;;;6.93;2.60;;;15.40;99.90;;;;;;5034835;28;20198;-69
2021/05/19 07:29:09;;;;;;;7.17;2.13;;;15.50;99.90;;;;;;5039398;28;20546;-69
2021/05/19 07:31:35;;;;;;;5.83;1.60;;;15.80;99.90;;;;;;5045980;28;20411;-68
2021/05/19 07:34:02;;;;;;;5.57;1.87;;;16.10;99.90;;;;;;5042982;28;20435;-69
2021/05/19 07:36:28;;;;;;;5.10;1.27;;;16.80;99.90;;;;;;5054403;28;20254;-72
2021/05/19 07:38:54;;;;;;;5.30;1.80;;;17.40;99.90;;;;;;5036884;28;20998;-70
2021/05/19 07:41:24;;;;;;;5.00;1.30;;;18.20;99.90;;;;;;5054686;28;20169;-69
2021/05/19 07:43:51;;;;;;;5.00;1.67;;;18.80;97.70;;;;;;5053117;28;20812;-71
2021/05/19 07:46:17;;;;;;;5.10;1.67;;;18.90;97.00;;;;;;5054528;28;20481;-72
2021/05/19 07:48:43;;;;;;;4.73;1.60;;;19.00;97.00;;;;;;5022463;28;20966;-71
2021/05/19 07:51:09;;;;;;;5.03;2.00;;;19.30;96.80;;;;;;5034545;28;20478;-72
2021/05/19 07:53:35;;;;;;;5.93;1.70;;;19.20;95.80;;;;;;5037600;28;20916;-69
2021/05/19 07:58:56;;;;;;;6.30;1.80;;;18.50;96.70;;;;;;5034427;28;20178;-71
2021/05/19 08:01:28;;;;;;;5.60;1.73;;;17.50;97.20;;;;;;5046450;28;20405;-72
2021/05/19 08:03:54;;;;;;;4.50;1.57;;;16.50;97.30;;;;;;5031271;28;20415;-71
2021/05/19 08:06:20;;;;;;;6.90;2.20;;;15.20;99.10;;;;;;5032515;28;20431;-72
2021/05/19 08:08:46;;;;;;;5.60;2.10;;;14.30;99.90;;;;;;5034115;28;20583;-73
2021/05/19 08:11:15;;;;;;;6.53;3.00;;;13.70;99.90;;;;;;5033997;28;20452;-70
2021/05/19 08:13:41;;;;;;;10.10;2.90;;;13.10;99.90;;;;;;5033819;28;20418;-73
2021/05/19 08:16:08;;;;;;;8.03;2.70;;;12.70;99.90;;;;;;5033960;28;20432;-72
2021/05/19 08:18:34;;;;;;;4.90;1.70;;;12.50;99.90;;;;;;5015844;28;20232;-71
2021/05/19 08:21:00;;;;;;;5.77;1.87;;;12.50;99.90;;;;;;5028296;28;20437;-73
2021/05/19 08:23:26;;;;;;;6.10;2.63;;;12.70;99.90;;;;;;5053367;28;20440;-73
2021/05/19 08:25:52;;;;;;;5.80;1.90;;;13.30;99.90;;;;;;5042420;28;20452;-71
2021/05/19 08:28:18;;;;;;;6.23;2.50;;;14.10;99.90;;;;;;5037518;28;20426;-72
2021/05/19 08:30:44;;;;;;;5.67;1.80;;;14.50;99.90;;;;;;5053752;28;20201;-72
2021/05/19 08:33:09;;;;;;;7.50;2.90;;;14.90;99.90;;;;;;5053499;28;20404;-71
2021/05/19 08:35:35;;;;;;;6.30;1.73;;;15.30;99.90;;;;;;5044143;28;20445;-70
2021/05/19 08:38:01;;;;;;;6.33;2.40;;;15.40;99.90;;;;;;5041531;28;20969;-68
2021/05/19 08:40:28;;;;;;;5.40;1.70;;;15.50;99.90;;;;;;5052112;28;20420;-70
2021/05/19 08:42:55;;;;;;;5.13;1.50;;;15.40;99.90;;;;;;5034516;28;20587;-70
2021/05/19 08:45:20;;;;;;;6.20;1.93;;;15.40;99.90;;;;;;5033364;28;20520;-69
2021/05/19 08:47:48;;;;;;;6.03;1.83;;;15.40;99.90;;;;;;5032922;28;20507;-70
2021/05/19 08:50:14;;;;;;;5.30;1.70;;;15.40;99.90;;;;;;5016046;28;20198;-70
2021/05/19 08:52:42;;;;;;;4.90;1.60;;;15.40;99.90;;;;;;5032956;28;20413;-71
2021/05/19 08:55:19;;;;;;;5.07;1.43;;;15.30;99.90;;;;;;5048507;28;20523;-69
2021/05/19 08:57:45;;;;;;;5.30;1.63;;;15.20;99.90;;;;;;5042605;28;20842;-69
2021/05/19 09:00:11;;;;;;;4.93;1.70;;;15.20;99.90;;;;;;5053393;28;20817;-67
2021/05/19 09:02:37;;;;;;;5.43;1.40;;;15.20;99.90;;;;;;5037359;28;20424;-68
2021/05/19 09:05:05;;;;;;;5.50;1.67;;;15.20;99.90;;;;;;5047272;28;20435;-69
2021/05/19 09:07:36;;;;;;;6.77;2.10;;;15.30;99.90;;;;;;5052892;28;20447;-69
2021/05/19 09:10:20;;;;;;;4.97;1.30;;;15.70;99.90;;;;;;5030181;28;20505;-67
2021/05/19 09:12:46;;;;;;;5.20;1.73;;;16.20;99.90;;;;;;5030080;28;20421;-68
2021/05/19 09:15:13;;;;;;;8.87;1.50;;;16.90;99.90;;;;;;5037704;28;20445;-69
2021/05/19 09:17:40;;;;;;;5.27;1.43;;;18.00;99.90;;;;;;5030958;28;20529;-68
2021/05/19 09:20:09;;;;;;;4.40;1.20;;;19.40;99.90;;;;;;5032068;28;20420;-72
2021/05/19 09:22:43;;;;;;;4.53;1.70;;;20.80;98.40;;;;;;5023313;28;20930;-70
2021/05/19 09:25:22;;;;;;;4.60;1.50;;;21.70;95.10;;;;;;5036273;28;20453;-70
2021/05/19 09:27:57;;;;;;;4.40;1.40;;;21.80;92.20;;;;;;5015108;28;20440;-73
2021/05/19 09:30:43;;;;;;;4.20;1.30;;;22.70;92.10;;;;;;5034314;28;20960;-69
2021/05/19 09:33:16;;;;;;;3.77;1.10;;;23.80;88.70;;;;;;5014963;28;20438;-70
2021/05/19 09:35:42;;;;;;;5.70;1.40;;;24.70;89.50;;;;;;5036679;28;20535;-71
2021/05/19 09:38:29;;;;;;;4.07;1.27;;;25.60;83.70;;;;;;5032904;28;20424;-72
2021/05/19 09:41:36;;;;;;;3.60;1.20;;;26.00;80.20;;;;;;5037393;28;20438;-72
2021/05/19 09:44:05;;;;;;;3.63;1.27;;;26.50;77.10;;;;;;5042484;28;20419;-71
2021/05/19 09:49:27;;;;;;;3.30;1.20;;;27.50;74.70;;;;;;5046754;28;20772;-72
2021/05/19 09:51:54;;;;;;;3.00;1.00;;;27.80;68.30;;;;;;5017076;28;20175;-74
2021/05/19 09:54:38;;;;;;;3.57;1.67;;;27.50;68.60;;;;;;5035758;28;20439;-71
2021/05/19 09:57:12;;;;;;;3.10;1.27;;;27.10;66.90;;;;;;5050986;28;20923;-73
2021/05/19 09:59:41;;;;;;;2.80;1.03;;;26.40;67.90;;;;;;5036718;28;20458;-68
2021/05/19 10:02:07;;;;;;;3.00;0.83;;;26.20;68.00;;;;;;5040847;28;20777;-69
2021/05/19 10:04:36;;;;;;;2.80;0.90;;;26.50;67.00;;;;;;5044414;28;20415;-70
2021/05/19 10:07:04;;;;;;;2.57;0.83;;;27.00;62.80;;;;;;5018636;28;20489;-69
2021/05/19 10:09:29;;;;;;;2.93;1.00;;;27.50;63.70;;;;;;5018930;28;20897;-73
2021/05/19 10:11:56;;;;;;;2.80;0.90;;;28.20;64.90;;;;;;5036417;28;20424;-72
2021/05/19 10:14:23;;;;;;;3.50;1.53;;;28.40;59.80;;;;;;5050863;28;20212;-72
2021/05/19 10:17:07;;;;;;;2.97;0.80;;;28.20;58.60;;;;;;5019427;28;20400;-72
2021/05/19 10:19:39;;;;;;;2.77;1.00;;;27.90;56.20;;;;;;5043553;28;20510;-75
2021/05/19 10:22:13;;;;;;;3.23;0.90;;;27.90;56.90;;;;;;5038047;28;20386;-72
2021/05/19 10:25:19;;;;;;;3.00;1.00;;;27.60;56.80;;;;;;5034151;28;20862;-69
2021/05/19 10:27:56;;;;;;;2.93;1.10;;;27.80;57.30;;;;;;5038904;28;20513;-70
2021/05/19 10:30:42;;;;;;;2.70;0.90;;;27.10;57.40;;;;;;5055856;28;20469;-69
2021/05/19 10:33:37;;;;;;;2.80;1.20;;;26.50;58.60;;;;;;5041121;28;20420;-71
2021/05/19 10:36:24;;;;;;;3.00;0.97;;;26.50;58.30;;;;;;5023092;28;20446;-71
2021/05/19 10:39:12;;;;;;;2.70;0.87;;;26.70;59.20;;;;;;5046813;28;20391;-70
2021/05/19 10:41:46;;;;;;;2.43;0.73;;;26.50;57.90;;;;;;5038089;28;20417;-70
2021/05/19 10:44:15;;;;;;;2.70;0.80;;;26.30;59.70;;;;;;5034130;28;20386;-69
2021/05/19 10:47:08;;;;;;;2.70;0.90;;;26.40;57.60;;;;;;5049088;28;20778;-71
2021/05/19 10:49:46;;;;;;;2.50;0.60;;;26.20;57.70;;;;;;5032279;28;20391;-69
2021/05/19 10:58:01;;;;;;;2.60;0.77;;;25.80;55.20;;;;;;5036414;28;20449;-66
2021/05/19 11:00:28;;;;;;;2.70;0.80;;;25.90;57.40;;;;;;5015871;28;20470;-64
2021/05/19 11:02:58;;;;;;;2.70;0.70;;;25.90;55.50;;;;;;5039717;28;20388;-67
2021/05/19 11:05:35;;;;;;;2.63;0.73;;;25.80;54.00;;;;;;5035213;28;20517;-65
2021/05/19 11:08:07;;;;;;;2.53;0.57;;;25.80;54.70;;;;;;5014471;28;20428;-67
2021/05/19 11:10:34;;;;;;;2.90;0.83;;;24.90;55.10;;;;;;5032314;28;20411;-63
2021/05/19 11:13:00;;;;;;;2.60;0.80;;;23.90;57.10;;;;;;5050031;28;20912;-67
2021/05/19 11:18:24;;;;;;;2.90;0.70;;;21.70;59.80;;;;;;5038381;28;20817;-65
2021/05/19 11:20:50;;;;;;;2.70;0.60;;;20.90;61.60;;;;;;5034993;28;20464;-70
2021/05/19 11:23:17;;;;;;;2.77;0.60;;;20.30;64.10;;;;;;5039673;28;20422;-65
2021/05/19 11:25:44;;;;;;;2.90;0.80;;;19.80;64.60;;;;;;5054081;28;20959;-63
2021/05/19 11:28:11;;;;;;;2.80;0.80;;;19.50;64.60;;;;;;5046324;28;20809;-64
2021/05/19 11:30:37;;;;;;;3.00;0.80;;;19.30;65.60;;;;;;5035207;28;20421;-65
2021/05/19 11:33:12;;;;;;;2.70;0.70;;;19.10;64.00;;;;;;5034252;28;20743;-64
2021/05/19 11:35:38;;;;;;;3.00;0.60;;;18.90;62.50;;;;;;5045388;28;20455;-66
2021/05/19 11:38:08;;;;;;;3.20;0.73;;;18.70;68.40;;;;;;5034209;28;20528;-66
2021/05/19 11:40:46;;;;;;;2.70;0.70;;;18.60;65.60;;;;;;5041351;28;20814;-66
2021/05/19 11:43:16;;;;;;;2.63;0.50;;;18.50;65.70;;;;;;5034265;28;20496;-67
2021/05/19 11:45:52;;;;;;;2.80;0.63;;;18.50;66.30;;;;;;5036233;28;20846;-67
2021/05/19 11:48:26;;;;;;;2.67;0.60;;;18.40;68.30;;;;;;5048958;28;20422;-66
2021/05/19 11:50:53;;;;;;;2.60;0.50;;;18.30;66.40;;;;;;5040772;28;20426;-66
2021/05/19 11:53:19;;;;;;;2.60;0.50;;;18.10;63.90;;;;;;5032808;28;20412;-67
2021/05/19 11:55:51;;;;;;;2.70;0.67;;;18.10;64.00;;;;;;5044244;28;20778;-64
2021/05/19 11:58:22;;;;;;;2.63;0.60;;;18.20;67.60;;;;;;5043195;28;20190;-68
2021/05/19 12:00:55;;;;;;;3.00;0.80;;;18.20;66.60;;;;;;5047335;28;20468;-68
2021/05/19 12:03:23;;;;;;;2.93;0.70;;;18.30;66.60;;;;;;5054416;28;20402;-69
2021/05/19 12:06:01;;;;;;;3.30;0.80;;;18.40;70.30;;;;;;5036002;28;20437;-67
2021/05/19 12:08:30;;;;;;;3.10;0.77;;;18.40;70.30;;;;;;5050628;28;20467;-67
2021/05/19 12:11:15;;;;;;;2.73;0.60;;;18.40;69.60;;;;;;5053910;28;20414;-68
2021/05/19 12:13:44;;;;;;;2.97;0.70;;;18.50;66.10;;;;;;5053808;28;20939;-69
2021/05/19 12:16:17;;;;;;;9.37;1.00;;;18.50;68.80;;;;;;5054018;28;20442;-67
2021/05/19 12:19:03;;;;;;;3.03;0.87;;;18.60;67.50;;;;;;5054495;28;20392;-68
2021/05/19 12:21:30;;;;;;;2.67;0.53;;;18.60;66.60;;;;;;5054374;28;20498;-69
2021/05/19 12:23:56;;;;;;;2.80;0.60;;;18.50;63.20;;;;;;5053839;28;20456;-67
2021/05/19 12:26:25;;;;;;;2.70;0.60;;;18.50;63.60;;;;;;5053687;28;20533;-66
2021/05/19 12:28:51;;;;;;;2.90;0.63;;;18.60;64.70;;;;;;5053943;28;20728;-68
2021/05/19 12:31:30;;;;;;;2.90;0.60;;;18.60;57.80;;;;;;5054327;28;20543;-68
2021/05/19 12:33:56;;;;;;;2.60;0.60;;;18.70;58.60;;;;;;5053461;28;20176;-66
2021/05/19 12:36:30;;;;;;;4.23;1.17;;;18.80;61.10;;;;;;5054025;28;20412;-67
2021/05/19 12:39:03;;;;;;;2.70;0.60;;;18.80;61.60;;;;;;5053956;28;20404;-66
2021/05/19 12:41:46;;;;;;;2.70;0.70;;;18.90;62.30;;;;;;5053862;28;20416;-67
2021/05/19 12:44:15;;;;;;;2.87;0.57;;;19.00;61.20;;;;;;5053248;28;20407;-67
2021/05/19 12:47:01;;;;;;;2.73;0.60;;;19.00;58.90;;;;;;5053655;28;20434;-65
2021/05/19 12:49:28;;;;;;;2.80;0.50;;;18.90;58.20;;;;;;5053781;28;20417;-68
2021/05/19 12:52:00;;;;;;;2.70;0.60;;;18.90;57.00;;;;;;5053650;28;20406;-66
2021/05/19 12:54:32;;;;;;;2.80;0.70;;;18.90;57.10;;;;;;5053240;28;20478;-67
2021/05/19 12:57:07;;;;;;;2.57;0.50;;;18.80;58.40;;;;;;5053510;28;20461;-65
2021/05/19 13:00:05;;;;;;;2.60;0.50;;;18.70;58.90;;;;;;5053509;28;20808;-69
2021/05/19 13:02:45;;;;;;;2.80;0.73;;;18.80;60.10;;;;;;5049050;28;20419;-67
2021/05/19 13:05:22;;;;;;;2.60;0.50;;;18.80;62.00;;;;;;5052597;28;20758;-66
2021/05/19 13:07:50;;;;;;;3.10;1.03;;;18.70;61.60;;;;;;5052652;28;20410;-67
2021/05/19 13:13:05;;;;;;;3.17;0.90;;;18.80;61.50;;;;;;5053027;28;20408;-67
2021/05/19 13:15:46;;;;;;;2.83;0.77;;;18.80;63.20;;;;;;5053007;28;20419;-67